sensor_id;sensor_type;location;lat;lon;timestamp;pressure;altitude;pressure_sealevel;temperature;humidity
45357;BME280;31092;51.924;21.448;2023-04-30T00:02:10;100050.31;;;6.01;100.00
45357;BME280;31092;51.924;21.448;2023-04-30T00:04:35;100046.97;;;5.99;100.00
45357;BME280;31092;51.924;21.448;2023-04-30T00:07:01;100047.50;;;5.93;100.00
45357;BME280;31092;51.924;21.448;2023-04-30T00:09:26;100052.28;;;5.89;100.00
45357;BME280;31092;51.924;21.448;2023-04-30T00:11:52;100049.19;;;5.84;100.00
45357;BME280;31092;51.924;21.448;2023-04-30T00:14:17;100049.72;;;5.78;100.00
45357;BME280;31092;51.924;21.448;2023-04-30T00:16:42;100047.63;;;5.72;100.00
45357;BME280;31092;51.924;21.448;2023-04-30T00:19:08;100046.47;;;5.65;100.00
45357;BME280;31092;51.924;21.448;2023-04-30T00:21:33;100052.53;;;5.57;100.00
45357;BME280;31092;51.924;21.448;2023-04-30T00:23:59;100051.25;;;5.51;100.00
45357;BME280;31092;51.924;21.448;2023-04-30T00:26:27;100050.81;;;5.46;100.00
45357;BME280;31092;51.924;21.448;2023-04-30T00:28:53;100047.00;;;5.39;100.00
45357;BME280;31092;51.924;21.448;2023-04-30T00:31:18;100050.94;;;5.35;100.00
45357;BME280;31092;51.924;21.448;2023-04-30T00:33:44;100050.94;;;5.35;100.00
45357;BME280;31092;51.924;21.448;2023-04-30T00:36:09;100046.59;;;5.34;100.00
45357;BME280;31092;51.924;21.448;2023-04-30T00:38:34;100048.00;;;5.38;100.00
45357;BME280;31092;51.924;21.448;2023-04-30T00:41:00;100046.00;;;5.40;100.00
45357;BME280;31092;51.924;21.448;2023-04-30T00:43:25;100044.88;;;5.33;100.00
45357;BME280;31092;51.924;21.448;2023-04-30T00:45:50;100057.22;;;5.24;100.00
45357;BME280;31092;51.924;21.448;2023-04-30T00:48:16;100053.53;;;5.16;100.00
45357;BME280;31092;51.924;21.448;2023-04-30T00:50:41;100056.50;;;5.13;100.00
45357;BME280;31092;51.924;21.448;2023-04-30T00:53:08;100052.84;;;5.14;100.00
45357;BME280;31092;51.924;21.448;2023-04-30T00:55:33;100049.91;;;5.17;100.00
45357;BME280;31092;51.924;21.448;2023-04-30T00:57:58;100045.25;;;5.19;100.00
45357;BME280;31092;51.924;21.448;2023-04-30T01:00:24;100047.09;;;5.18;100.00
45357;BME280;31092;51.924;21.448;2023-04-30T01:02:50;100049.34;;;5.13;100.00
45357;BME280;31092;51.924;21.448;2023-04-30T01:05:16;100050.28;;;5.02;100.00
45357;BME280;31092;51.924;21.448;2023-04-30T01:07:41;100044.91;;;4.93;100.00
45357;BME280;31092;51.924;21.448;2023-04-30T01:10:09;100048.66;;;4.90;100.00
45357;BME280;31092;51.924;21.448;2023-04-30T01:12:44;100052.91;;;4.93;100.00
45357;BME280;31092;51.924;21.448;2023-04-30T01:15:45;100042.22;;;4.93;100.00
45357;BME280;31092;51.924;21.448;2023-04-30T01:18:16;100045.16;;;4.90;100.00
45357;BME280;31092;51.924;21.448;2023-04-30T01:20:43;100044.47;;;4.88;100.00
45357;BME280;31092;51.924;21.448;2023-04-30T01:28:17;100039.59;;;5.02;100.00
45357;BME280;31092;51.924;21.448;2023-04-30T01:30:44;100041.59;;;5.10;100.00
45357;BME280;31092;51.924;21.448;2023-04-30T01:33:10;100038.97;;;5.20;100.00
45357;BME280;31092;51.924;21.448;2023-04-30T01:48:34;100062.13;;;5.69;100.00
45357;BME280;31092;51.924;21.448;2023-04-30T01:51:09;100057.91;;;5.76;100.00
45357;BME280;31092;51.924;21.448;2023-04-30T01:53:40;100056.50;;;5.82;100.00
45357;BME280;31092;51.924;21.448;2023-04-30T01:56:11;100055.66;;;5.82;100.00
45357;BME280;31092;51.924;21.448;2023-04-30T01:58:37;100053.53;;;5.85;100.00
45357;BME280;31092;51.924;21.448;2023-04-30T02:01:02;100056.50;;;5.92;100.00
45357;BME280;31092;51.924;21.448;2023-04-30T02:03:28;100060.59;;;5.96;100.00
45357;BME280;31092;51.924;21.448;2023-04-30T02:05:53;100064.13;;;5.96;100.00
45357;BME280;31092;51.924;21.448;2023-04-30T02:08:18;100059.59;;;5.97;100.00
45357;BME280;31092;51.924;21.448;2023-04-30T02:10:44;100060.31;;;5.99;100.00
45357;BME280;31092;51.924;21.448;2023-04-30T02:13:09;100060.19;;;6.00;100.00
45357;BME280;31092;51.924;21.448;2023-04-30T02:15:35;100062.44;;;6.05;100.00
45357;BME280;31092;51.924;21.448;2023-04-30T02:18:00;100060.63;;;6.06;100.00
45357;BME280;31092;51.924;21.448;2023-04-30T02:20:25;100073.81;;;6.07;100.00
45357;BME280;31092;51.924;21.448;2023-04-30T02:22:51;100066.53;;;6.09;100.00
45357;BME280;31092;51.924;21.448;2023-04-30T02:25:16;100065.09;;;6.15;100.00
45357;BME280;31092;51.924;21.448;2023-04-30T02:27:42;100067.22;;;6.21;100.00
45357;BME280;31092;51.924;21.448;2023-04-30T02:30:07;100068.50;;;6.27;100.00
45357;BME280;31092;51.924;21.448;2023-04-30T02:32:32;100069.72;;;6.32;100.00
45357;BME280;31092;51.924;21.448;2023-04-30T02:34:58;100070.44;;;6.34;100.00
45357;BME280;31092;51.924;21.448;2023-04-30T02:37:23;100073.81;;;6.36;100.00
45357;BME280;31092;51.924;21.448;2023-04-30T02:39:48;100075.34;;;6.39;100.00
45357;BME280;31092;51.924;21.448;2023-04-30T02:42:14;100074.25;;;6.41;100.00
45357;BME280;31092;51.924;21.448;2023-04-30T02:44:39;100069.72;;;6.42;100.00
45357;BME280;31092;51.924;21.448;2023-04-30T02:47:05;100069.56;;;6.43;100.00
45357;BME280;31092;51.924;21.448;2023-04-30T02:49:30;100073.66;;;6.47;100.00
45357;BME280;31092;51.924;21.448;2023-04-30T02:51:56;100070.41;;;6.54;100.00
45357;BME280;31092;51.924;21.448;2023-04-30T02:54:21;100073.63;;;6.57;100.00
45357;BME280;31092;51.924;21.448;2023-04-30T02:56:46;100074.06;;;6.62;100.00
45357;BME280;31092;51.924;21.448;2023-04-30T02:59:12;100074.44;;;6.67;100.00
45357;BME280;31092;51.924;21.448;2023-04-30T03:01:37;100074.72;;;6.74;100.00
45357;BME280;31092;51.924;21.448;2023-04-30T03:04:03;100076.13;;;6.78;100.00
45357;BME280;31092;51.924;21.448;2023-04-30T03:06:29;100077.66;;;6.81;100.00
45357;BME280;31092;51.924;21.448;2023-04-30T03:08:55;100079.50;;;6.80;100.00
45357;BME280;31092;51.924;21.448;2023-04-30T03:11:20;100076.81;;;6.80;100.00
45357;BME280;31092;51.924;21.448;2023-04-30T03:13:46;100080.47;;;6.79;100.00
45357;BME280;31092;51.924;21.448;2023-04-30T03:16:15;100088.09;;;6.84;100.00
45357;BME280;31092;51.924;21.448;2023-04-30T03:18:40;100092.00;;;6.89;100.00
45357;BME280;31092;51.924;21.448;2023-04-30T03:21:06;100080.56;;;6.97;100.00
45357;BME280;31092;51.924;21.448;2023-04-30T03:23:31;100087.16;;;7.03;100.00
45357;BME280;31092;51.924;21.448;2023-04-30T03:25:56;100083.06;;;7.08;100.00
45357;BME280;31092;51.924;21.448;2023-04-30T03:28:22;100090.66;;;7.13;100.00
45357;BME280;31092;51.924;21.448;2023-04-30T03:30:47;100094.88;;;7.15;100.00
45357;BME280;31092;51.924;21.448;2023-04-30T03:33:12;100084.84;;;7.17;100.00
45357;BME280;31092;51.924;21.448;2023-04-30T03:35:38;100100.47;;;7.22;100.00
45357;BME280;31092;51.924;21.448;2023-04-30T03:38:03;100101.19;;;7.24;100.00
45357;BME280;31092;51.924;21.448;2023-04-30T03:40:28;100100.19;;;7.25;100.00
45357;BME280;31092;51.924;21.448;2023-04-30T03:42:54;100103.69;;;7.26;100.00
45357;BME280;31092;51.924;21.448;2023-04-30T03:45:19;100109.06;;;7.26;100.00
45357;BME280;31092;51.924;21.448;2023-04-30T03:47:45;100108.94;;;7.27;100.00
45357;BME280;31092;51.924;21.448;2023-04-30T03:50:10;100113.28;;;7.28;100.00
45357;BME280;31092;51.924;21.448;2023-04-30T03:52:36;100123.88;;;7.30;100.00
45357;BME280;31092;51.924;21.448;2023-04-30T03:55:04;100126.25;;;7.33;100.00
45357;BME280;31092;51.924;21.448;2023-04-30T03:57:30;100130.31;;;7.37;100.00
45357;BME280;31092;51.924;21.448;2023-04-30T03:59:55;100137.06;;;7.41;100.00
45357;BME280;31092;51.924;21.448;2023-04-30T04:02:21;100134.94;;;7.44;100.00
45357;BME280;31092;51.924;21.448;2023-04-30T04:04:46;100144.19;;;7.50;100.00
45357;BME280;31092;51.924;21.448;2023-04-30T04:07:11;100146.31;;;7.56;100.00
45357;BME280;31092;51.924;21.448;2023-04-30T04:09:37;100157.44;;;7.61;100.00
45357;BME280;31092;51.924;21.448;2023-04-30T04:12:02;100155.97;;;7.67;100.00
45357;BME280;31092;51.924;21.448;2023-04-30T04:14:28;100154.56;;;7.73;100.00
45357;BME280;31092;51.924;21.448;2023-04-30T04:16:53;100163.97;;;7.77;100.00
45357;BME280;31092;51.924;21.448;2023-04-30T04:19:18;100166.06;;;7.83;100.00
45357;BME280;31092;51.924;21.448;2023-04-30T04:21:44;100171.81;;;7.88;100.00
45357;BME280;31092;51.924;21.448;2023-04-30T04:24:09;100170.38;;;7.94;100.00
45357;BME280;31092;51.924;21.448;2023-04-30T04:26:35;100166.00;;;8.10;100.00
45357;BME280;31092;51.924;21.448;2023-04-30T04:29:01;100174.03;;;8.38;100.00
45357;BME280;31092;51.924;21.448;2023-04-30T04:31:28;100166.81;;;8.74;100.00
45357;BME280;31092;51.924;21.448;2023-04-30T04:33:53;100167.69;;;9.01;100.00
45357;BME280;31092;51.924;21.448;2023-04-30T04:36:23;100168.28;;;9.21;100.00
45357;BME280;31092;51.924;21.448;2023-04-30T04:38:48;100181.47;;;9.32;100.00
45357;BME280;31092;51.924;21.448;2023-04-30T04:41:13;100179.50;;;9.42;100.00
45357;BME280;31092;51.924;21.448;2023-04-30T04:43:39;100185.09;;;9.49;100.00
45357;BME280;31092;51.924;21.448;2023-04-30T04:46:05;100188.16;;;9.54;100.00
45357;BME280;31092;51.924;21.448;2023-04-30T04:48:30;100188.50;;;9.59;100.00
45357;BME280;31092;51.924;21.448;2023-04-30T04:50:55;100193.06;;;9.67;100.00
45357;BME280;31092;51.924;21.448;2023-04-30T04:53:21;100191.28;;;9.75;100.00
45357;BME280;31092;51.924;21.448;2023-04-30T04:55:46;100196.69;;;9.83;100.00
45357;BME280;31092;51.924;21.448;2023-04-30T04:58:11;100204.97;;;9.90;100.00
45357;BME280;31092;51.924;21.448;2023-04-30T05:00:46;100207.16;;;9.95;100.00
45357;BME280;31092;51.924;21.448;2023-04-30T05:03:16;100210.53;;;9.97;100.00
45357;BME280;31092;51.924;21.448;2023-04-30T05:05:41;100207.84;;;9.97;100.00
45357;BME280;31092;51.924;21.448;2023-04-30T05:08:07;100214.06;;;9.97;100.00
45357;BME280;31092;51.924;21.448;2023-04-30T05:10:32;100218.59;;;9.97;100.00
45357;BME280;31092;51.924;21.448;2023-04-30T05:12:58;100216.91;;;9.96;100.00
45357;BME280;31092;51.924;21.448;2023-04-30T05:15:24;100228.69;;;9.95;100.00
45357;BME280;31092;51.924;21.448;2023-04-30T05:17:49;100229.69;;;9.94;100.00
45357;BME280;31092;51.924;21.448;2023-04-30T05:20:15;100238.06;;;9.91;100.00
45357;BME280;31092;51.924;21.448;2023-04-30T05:22:40;100238.72;;;9.84;100.00
45357;BME280;31092;51.924;21.448;2023-04-30T05:25:05;100248.59;;;9.76;100.00
45357;BME280;31092;51.924;21.448;2023-04-30T05:27:31;100251.25;;;9.68;100.00
45357;BME280;31092;51.924;21.448;2023-04-30T05:29:56;100250.66;;;9.56;100.00
45357;BME280;31092;51.924;21.448;2023-04-30T05:32:22;100255.16;;;9.47;100.00
45357;BME280;31092;51.924;21.448;2023-04-30T05:34:47;100256.81;;;9.40;100.00
45357;BME280;31092;51.924;21.448;2023-04-30T05:37:13;100270.88;;;9.34;100.00
45357;BME280;31092;51.924;21.448;2023-04-30T05:39:39;100276.00;;;9.27;100.00
45357;BME280;31092;51.924;21.448;2023-04-30T05:42:04;100281.88;;;9.23;100.00
45357;BME280;31092;51.924;21.448;2023-04-30T05:44:30;100277.81;;;9.19;100.00
45357;BME280;31092;51.924;21.448;2023-04-30T05:46:55;100284.34;;;9.16;100.00
45357;BME280;31092;51.924;21.448;2023-04-30T05:49:21;100291.56;;;9.16;100.00
45357;BME280;31092;51.924;21.448;2023-04-30T05:51:46;100292.88;;;9.11;100.00
45357;BME280;31092;51.924;21.448;2023-04-30T05:54:11;100303.75;;;9.10;100.00
45357;BME280;31092;51.924;21.448;2023-04-30T05:56:37;100307.44;;;9.09;100.00
45357;BME280;31092;51.924;21.448;2023-04-30T05:59:02;100306.91;;;9.05;100.00
45357;BME280;31092;51.924;21.448;2023-04-30T06:01:32;100308.91;;;9.03;100.00
45357;BME280;31092;51.924;21.448;2023-04-30T06:03:58;100312.75;;;9.01;100.00
45357;BME280;31092;51.924;21.448;2023-04-30T06:06:25;100323.63;;;8.99;100.00
45357;BME280;31092;51.924;21.448;2023-04-30T06:08:51;100317.59;;;8.97;100.00
45357;BME280;31092;51.924;21.448;2023-04-30T06:11:16;100330.03;;;8.98;100.00
45357;BME280;31092;51.924;21.448;2023-04-30T06:13:41;100335.94;;;9.02;100.00
45357;BME280;31092;51.924;21.448;2023-04-30T06:16:07;100331.09;;;9.05;100.00
45357;BME280;31092;51.924;21.448;2023-04-30T06:18:32;100328.78;;;9.10;100.00
45357;BME280;31092;51.924;21.448;2023-04-30T06:20:57;100340.47;;;9.19;100.00
45357;BME280;31092;51.924;21.448;2023-04-30T06:23:23;100333.94;;;9.22;100.00
45357;BME280;31092;51.924;21.448;2023-04-30T06:25:48;100341.06;;;9.31;100.00
45357;BME280;31092;51.924;21.448;2023-04-30T06:28:13;100345.13;;;9.35;100.00
45357;BME280;31092;51.924;21.448;2023-04-30T06:30:39;100350.50;;;9.35;100.00
45357;BME280;31092;51.924;21.448;2023-04-30T06:33:05;100349.66;;;9.34;100.00
45357;BME280;31092;51.924;21.448;2023-04-30T06:35:30;100351.50;;;9.34;100.00
45357;BME280;31092;51.924;21.448;2023-04-30T06:37:55;100350.88;;;9.40;100.00
45357;BME280;31092;51.924;21.448;2023-04-30T06:40:21;100348.78;;;9.52;100.00
45357;BME280;31092;51.924;21.448;2023-04-30T06:42:46;100354.06;;;9.62;100.00
45357;BME280;31092;51.924;21.448;2023-04-30T06:45:12;100354.44;;;9.67;100.00
45357;BME280;31092;51.924;21.448;2023-04-30T06:47:39;100348.28;;;9.74;100.00
45357;BME280;31092;51.924;21.448;2023-04-30T06:50:06;100342.66;;;9.86;100.00
45357;BME280;31092;51.924;21.448;2023-04-30T06:52:32;100349.63;;;9.96;100.00
45357;BME280;31092;51.924;21.448;2023-04-30T06:54:57;100348.00;;;10.12;100.00
45357;BME280;31092;51.924;21.448;2023-04-30T06:57:23;100351.56;;;10.20;100.00
45357;BME280;31092;51.924;21.448;2023-04-30T06:59:49;100350.13;;;10.26;100.00
45357;BME280;31092;51.924;21.448;2023-04-30T07:02:15;100349.13;;;10.27;100.00
45357;BME280;31092;51.924;21.448;2023-04-30T07:04:40;100356.69;;;10.31;100.00
45357;BME280;31092;51.924;21.448;2023-04-30T07:07:05;100348.69;;;10.40;100.00
45357;BME280;31092;51.924;21.448;2023-04-30T07:09:31;100350.06;;;10.52;100.00
45357;BME280;31092;51.924;21.448;2023-04-30T07:11:56;100347.94;;;10.64;100.00
45357;BME280;31092;51.924;21.448;2023-04-30T07:14:22;100352.00;;;10.76;100.00
45357;BME280;31092;51.924;21.448;2023-04-30T07:16:51;100347.44;;;10.76;100.00
45357;BME280;31092;51.924;21.448;2023-04-30T07:19:16;100343.09;;;10.84;100.00
45357;BME280;31092;51.924;21.448;2023-04-30T07:21:42;100352.06;;;11.00;100.00
45357;BME280;31092;51.924;21.448;2023-04-30T07:24:07;100344.66;;;11.11;100.00
45357;BME280;31092;51.924;21.448;2023-04-30T07:26:32;100347.16;;;11.20;100.00
45357;BME280;31092;51.924;21.448;2023-04-30T07:28:58;100341.28;;;11.33;100.00
45357;BME280;31092;51.924;21.448;2023-04-30T07:31:23;100358.66;;;11.47;100.00
45357;BME280;31092;51.924;21.448;2023-04-30T07:33:50;100338.94;;;11.46;100.00
45357;BME280;31092;51.924;21.448;2023-04-30T07:36:15;100346.88;;;11.56;100.00
45357;BME280;31092;51.924;21.448;2023-04-30T07:38:41;100342.63;;;11.78;100.00
45357;BME280;31092;51.924;21.448;2023-04-30T07:41:06;100355.78;;;11.81;100.00
45357;BME280;31092;51.924;21.448;2023-04-30T07:43:33;100355.09;;;11.79;100.00
45357;BME280;31092;51.924;21.448;2023-04-30T07:45:59;100359.16;;;12.00;100.00
45357;BME280;31092;51.924;21.448;2023-04-30T07:48:24;100357.00;;;12.34;100.00
45357;BME280;31092;51.924;21.448;2023-04-30T07:50:49;100361.06;;;12.30;100.00
45357;BME280;31092;51.924;21.448;2023-04-30T07:53:15;100367.44;;;12.45;100.00
45357;BME280;31092;51.924;21.448;2023-04-30T07:55:40;100370.41;;;12.59;100.00
45357;BME280;31092;51.924;21.448;2023-04-30T07:58:06;100369.66;;;12.73;100.00
45357;BME280;31092;51.924;21.448;2023-04-30T08:00:31;100375.13;;;12.65;100.00
45357;BME280;31092;51.924;21.448;2023-04-30T08:02:57;100377.28;;;12.69;100.00
45357;BME280;31092;51.924;21.448;2023-04-30T08:05:23;100375.34;;;12.86;100.00
45357;BME280;31092;51.924;21.448;2023-04-30T08:07:48;100375.13;;;13.19;100.00
45357;BME280;31092;51.924;21.448;2023-04-30T08:10:13;100381.44;;;13.11;100.00
45357;BME280;31092;51.924;21.448;2023-04-30T08:12:39;100376.09;;;13.03;100.00
45357;BME280;31092;51.924;21.448;2023-04-30T08:15:05;100376.31;;;12.93;100.00
45357;BME280;31092;51.924;21.448;2023-04-30T08:17:31;100379.13;;;12.77;100.00
45357;BME280;31092;51.924;21.448;2023-04-30T08:19:56;100388.66;;;12.57;100.00
45357;BME280;31092;51.924;21.448;2023-04-30T08:22:22;100394.38;;;12.62;100.00
45357;BME280;31092;51.924;21.448;2023-04-30T08:24:47;100380.13;;;13.07;100.00
45357;BME280;31092;51.924;21.448;2023-04-30T08:27:13;100384.28;;;13.18;100.00
45357;BME280;31092;51.924;21.448;2023-04-30T08:29:38;100380.53;;;12.96;100.00
45357;BME280;31092;51.924;21.448;2023-04-30T08:32:03;100393.81;;;12.75;100.00
45357;BME280;31092;51.924;21.448;2023-04-30T08:34:30;100392.09;;;12.82;100.00
45357;BME280;31092;51.924;21.448;2023-04-30T08:36:55;100390.34;;;13.28;100.00
45357;BME280;31092;51.924;21.448;2023-04-30T08:39:21;100396.75;;;13.50;100.00
45357;BME280;31092;51.924;21.448;2023-04-30T08:41:46;100392.13;;;13.59;100.00
45357;BME280;31092;51.924;21.448;2023-04-30T08:44:15;100391.06;;;13.83;100.00
45357;BME280;31092;51.924;21.448;2023-04-30T08:46:40;100394.25;;;13.86;100.00
45357;BME280;31092;51.924;21.448;2023-04-30T08:49:06;100395.47;;;13.84;100.00
45357;BME280;31092;51.924;21.448;2023-04-30T08:51:31;100391.25;;;13.81;100.00
45357;BME280;31092;51.924;21.448;2023-04-30T08:53:57;100406.31;;;13.84;100.00
45357;BME280;31092;51.924;21.448;2023-04-30T08:56:22;100396.34;;;14.14;100.00
45357;BME280;31092;51.924;21.448;2023-04-30T08:58:48;100388.59;;;14.41;100.00
45357;BME280;31092;51.924;21.448;2023-04-30T09:01:13;100395.16;;;14.31;100.00
45357;BME280;31092;51.924;21.448;2023-04-30T09:03:39;100400.47;;;14.10;100.00
45357;BME280;31092;51.924;21.448;2023-04-30T09:06:05;100390.22;;;14.35;100.00
45357;BME280;31092;51.924;21.448;2023-04-30T09:11:26;100400.97;;;14.58;100.00
45357;BME280;31092;51.924;21.448;2023-04-30T09:13:53;100399.00;;;14.81;100.00
45357;BME280;31092;51.924;21.448;2023-04-30T09:16:19;100395.69;;;15.22;100.00
45357;BME280;31092;51.924;21.448;2023-04-30T09:18:45;100403.91;;;15.29;100.00
45357;BME280;31092;51.924;21.448;2023-04-30T09:21:11;100398.88;;;14.90;100.00
45357;BME280;31092;51.924;21.448;2023-04-30T09:23:39;100407.50;;;15.15;100.00
45357;BME280;31092;51.924;21.448;2023-04-30T09:26:19;100395.22;;;15.55;100.00
45357;BME280;31092;51.924;21.448;2023-04-30T09:28:55;100410.25;;;15.36;100.00
45357;BME280;31092;51.924;21.448;2023-04-30T09:31:21;100409.72;;;14.90;100.00
45357;BME280;31092;51.924;21.448;2023-04-30T09:33:47;100410.88;;;14.80;100.00
45357;BME280;31092;51.924;21.448;2023-04-30T09:36:12;100396.84;;;14.77;100.00
45357;BME280;31092;51.924;21.448;2023-04-30T09:38:38;100402.00;;;14.57;100.00
45357;BME280;31092;51.924;21.448;2023-04-30T09:41:03;100406.09;;;14.38;100.00
45357;BME280;31092;51.924;21.448;2023-04-30T09:43:29;100416.63;;;14.48;100.00
45357;BME280;31092;51.924;21.448;2023-04-30T09:45:56;100414.63;;;14.65;100.00
45357;BME280;31092;51.924;21.448;2023-04-30T09:48:22;100414.03;;;14.40;100.00
45357;BME280;31092;51.924;21.448;2023-04-30T09:50:48;100410.34;;;14.55;100.00
45357;BME280;31092;51.924;21.448;2023-04-30T09:53:14;100395.25;;;14.82;100.00
45357;BME280;31092;51.924;21.448;2023-04-30T09:55:44;100407.38;;;15.01;100.00
45357;BME280;31092;51.924;21.448;2023-04-30T09:58:10;100406.09;;;15.19;100.00
45357;BME280;31092;51.924;21.448;2023-04-30T10:00:36;100403.53;;;15.32;100.00
45357;BME280;31092;51.924;21.448;2023-04-30T10:03:08;100402.44;;;15.26;100.00
45357;BME280;31092;51.924;21.448;2023-04-30T10:05:41;100402.09;;;15.36;100.00
45357;BME280;31092;51.924;21.448;2023-04-30T10:10:57;100415.44;;;14.95;100.00
45357;BME280;31092;51.924;21.448;2023-04-30T10:13:27;100412.69;;;15.09;100.00
45357;BME280;31092;51.924;21.448;2023-04-30T10:15:56;100418.84;;;15.03;100.00
45357;BME280;31092;51.924;21.448;2023-04-30T10:18:27;100415.22;;;14.96;100.00
45357;BME280;31092;51.924;21.448;2023-04-30T10:20:53;100427.00;;;15.03;100.00
45357;BME280;31092;51.924;21.448;2023-04-30T10:23:19;100422.41;;;15.04;100.00
45357;BME280;31092;51.924;21.448;2023-04-30T10:25:45;100417.28;;;15.09;98.15
45357;BME280;31092;51.924;21.448;2023-04-30T10:28:11;100417.78;;;14.98;98.20
45357;BME280;31092;51.924;21.448;2023-04-30T10:30:37;100408.97;;;14.96;95.88
45357;BME280;31092;51.924;21.448;2023-04-30T10:33:18;100420.56;;;14.90;93.41
45357;BME280;31092;51.924;21.448;2023-04-30T10:35:58;100404.31;;;14.75;93.51
45357;BME280;31092;51.924;21.448;2023-04-30T10:38:24;100406.75;;;14.84;91.81
45357;BME280;31092;51.924;21.448;2023-04-30T10:40:54;100410.06;;;15.38;90.81
45357;BME280;31092;51.924;21.448;2023-04-30T10:43:22;100417.25;;;15.45;85.56
45357;BME280;31092;51.924;21.448;2023-04-30T10:45:48;100416.19;;;15.46;83.16
45357;BME280;31092;51.924;21.448;2023-04-30T10:48:14;100407.28;;;15.31;83.01
45357;BME280;31092;51.924;21.448;2023-04-30T10:50:41;100404.56;;;15.31;85.25
45357;BME280;31092;51.924;21.448;2023-04-30T10:53:08;100406.44;;;15.30;79.20
45357;BME280;31092;51.924;21.448;2023-04-30T10:55:41;100416.94;;;15.19;69.20
45357;BME280;31092;51.924;21.448;2023-04-30T11:01:12;100417.66;;;15.06;52.07
45357;BME280;31092;51.924;21.448;2023-04-30T11:03:39;100423.00;;;14.99;59.15
45357;BME280;31092;51.924;21.448;2023-04-30T11:06:11;100415.66;;;15.15;66.16
45357;BME280;31092;51.924;21.448;2023-04-30T11:08:44;100417.09;;;15.53;71.91
45357;BME280;31092;51.924;21.448;2023-04-30T11:11:10;100419.88;;;15.60;66.28
45357;BME280;31092;51.924;21.448;2023-04-30T11:13:39;100416.69;;;15.71;69.23
45357;BME280;31092;51.924;21.448;2023-04-30T11:16:06;100426.56;;;15.79;70.01
45357;BME280;31092;51.924;21.448;2023-04-30T11:18:31;100421.78;;;15.81;67.13
45357;BME280;31092;51.924;21.448;2023-04-30T11:20:57;100435.06;;;15.69;51.94
45357;BME280;31092;51.924;21.448;2023-04-30T11:23:23;100432.75;;;15.51;55.08
45357;BME280;31092;51.924;21.448;2023-04-30T11:25:48;100431.44;;;15.84;57.09
45357;BME280;31092;51.924;21.448;2023-04-30T11:28:20;100431.22;;;15.85;53.58
45357;BME280;31092;51.924;21.448;2023-04-30T11:30:58;100427.75;;;15.70;56.67
45357;BME280;31092;51.924;21.448;2023-04-30T11:33:27;100437.19;;;15.74;57.31
45357;BME280;31092;51.924;21.448;2023-04-30T11:35:53;100425.72;;;15.78;59.71
45357;BME280;31092;51.924;21.448;2023-04-30T11:38:30;100433.16;;;15.91;59.62
45357;BME280;31092;51.924;21.448;2023-04-30T11:40:56;100434.72;;;15.79;55.60
45357;BME280;31092;51.924;21.448;2023-04-30T11:43:32;100434.53;;;15.80;57.50
45357;BME280;31092;51.924;21.448;2023-04-30T11:48:33;100440.06;;;16.22;60.08
45357;BME280;31092;51.924;21.448;2023-04-30T11:51:01;100438.50;;;16.06;57.34
45357;BME280;31092;51.924;21.448;2023-04-30T11:53:27;100446.22;;;15.81;56.36
45357;BME280;31092;51.924;21.448;2023-04-30T11:55:53;100440.56;;;15.76;62.39
45357;BME280;31092;51.924;21.448;2023-04-30T11:58:19;100444.22;;;15.68;61.84
45357;BME280;31092;51.924;21.448;2023-04-30T12:00:45;100437.13;;;15.67;55.17
45357;BME280;31092;51.924;21.448;2023-04-30T12:03:12;100428.44;;;15.78;58.20
45357;BME280;31092;51.924;21.448;2023-04-30T12:05:39;100431.34;;;15.98;62.33
45357;BME280;31092;51.924;21.448;2023-04-30T12:08:04;100422.88;;;16.15;61.73
45357;BME280;31092;51.924;21.448;2023-04-30T12:10:32;100440.31;;;15.99;59.80
45357;BME280;31092;51.924;21.448;2023-04-30T12:12:57;100435.59;;;15.86;60.66
45357;BME280;31092;51.924;21.448;2023-04-30T12:15:23;100435.09;;;15.97;62.20
45357;BME280;31092;51.924;21.448;2023-04-30T12:17:57;100425.38;;;16.10;60.10
45357;BME280;31092;51.924;21.448;2023-04-30T12:20:23;100439.81;;;15.89;61.06
45357;BME280;31092;51.924;21.448;2023-04-30T12:22:49;100430.84;;;15.88;63.59
45357;BME280;31092;51.924;21.448;2023-04-30T12:25:19;100431.59;;;15.82;64.24
45357;BME280;31092;51.924;21.448;2023-04-30T12:27:45;100431.66;;;15.89;64.17
45357;BME280;31092;51.924;21.448;2023-04-30T12:30:11;100429.28;;;15.79;61.75
45357;BME280;31092;51.924;21.448;2023-04-30T12:32:48;100434.59;;;15.66;64.27
45357;BME280;31092;51.924;21.448;2023-04-30T12:35:14;100424.81;;;15.71;66.00
45357;BME280;31092;51.924;21.448;2023-04-30T12:37:40;100421.13;;;15.79;64.89
45357;BME280;31092;51.924;21.448;2023-04-30T12:40:07;100413.84;;;15.79;65.24
45357;BME280;31092;51.924;21.448;2023-04-30T12:42:34;100417.81;;;16.05;68.07
45357;BME280;31092;51.924;21.448;2023-04-30T12:45:00;100417.94;;;16.25;67.24
45357;BME280;31092;51.924;21.448;2023-04-30T12:47:25;100414.88;;;16.07;66.47
45357;BME280;31092;51.924;21.448;2023-04-30T12:49:51;100423.38;;;15.97;65.34
45357;BME280;31092;51.924;21.448;2023-04-30T12:52:16;100420.13;;;15.80;62.70
45357;BME280;31092;51.924;21.448;2023-04-30T12:54:42;100422.56;;;15.75;66.85
45357;BME280;31092;51.924;21.448;2023-04-30T12:57:10;100417.59;;;16.07;68.15
45357;BME280;31092;51.924;21.448;2023-04-30T12:59:38;100417.16;;;16.03;61.55
45357;BME280;31092;51.924;21.448;2023-04-30T13:02:07;100414.31;;;15.90;65.51
45357;BME280;31092;51.924;21.448;2023-04-30T13:04:33;100429.09;;;15.80;61.65